createdAt,value
2019-03-15T00:02:27.327Z,1.80
2019-03-15T00:04:57.980Z,1.47
2019-03-15T00:07:28.623Z,1.60
2019-03-15T00:09:59.341Z,2.07
2019-03-15T00:12:29.972Z,2.43
2019-03-15T00:15:01.845Z,2.20
2019-03-15T00:17:32.571Z,2.57
2019-03-15T00:20:03.258Z,2.10
2019-03-15T00:22:34.020Z,2.50
2019-03-15T00:25:05.127Z,2.13
2019-03-15T00:27:35.738Z,2.47
2019-03-15T00:30:07.360Z,2.43
2019-03-15T00:32:38.023Z,2.40
2019-03-15T00:35:09.580Z,2.33
2019-03-15T00:37:40.381Z,2.13
2019-03-15T00:40:13.357Z,1.70
2019-03-15T00:42:43.969Z,1.93
2019-03-15T00:45:14.849Z,1.83
2019-03-15T00:47:45.501Z,1.80
2019-03-15T00:50:16.178Z,2.17
2019-03-15T00:52:46.866Z,1.80
2019-03-15T00:55:17.502Z,1.90
2019-03-15T00:58:13.219Z,2.70
2019-03-15T01:00:44.454Z,1.53
2019-03-15T01:03:15.086Z,1.80
2019-03-15T01:05:45.822Z,1.50
2019-03-15T01:08:16.451Z,1.80
2019-03-15T01:10:47.327Z,2.47
2019-03-15T01:13:41.406Z,1.57
2019-03-15T01:16:12.159Z,1.63
2019-03-15T01:18:44.598Z,1.67
2019-03-15T01:21:15.296Z,2.10
2019-03-15T01:23:45.938Z,2.10
2019-03-15T01:26:16.579Z,1.80
2019-03-15T01:28:47.197Z,2.07
2019-03-15T01:31:21.273Z,1.97
2019-03-15T01:33:51.875Z,1.90
2019-03-15T01:36:22.637Z,1.50
2019-03-15T01:38:53.251Z,1.80
2019-03-15T01:41:30.231Z,1.63
2019-03-15T01:44:01.055Z,1.87
2019-03-15T01:46:31.809Z,1.70
2019-03-15T01:49:02.590Z,1.40
2019-03-15T01:51:33.493Z,1.80
2019-03-15T01:54:04.421Z,2.33
2019-03-15T01:56:35.203Z,1.97
2019-03-15T01:59:05.827Z,2.40
2019-03-15T02:01:36.501Z,2.10
2019-03-15T02:04:07.171Z,3.33
2019-03-15T02:06:37.816Z,2.70
2019-03-15T02:09:09.413Z,2.40
2019-03-15T02:15:14.341Z,2.03
2019-03-15T02:17:43.919Z,10.97
2019-03-15T02:20:15.016Z,2.00
2019-03-15T02:22:45.700Z,2.20
2019-03-15T02:25:16.445Z,2.10
2019-03-15T02:27:47.170Z,1.90
2019-03-15T02:30:17.808Z,1.83
2019-03-15T02:32:48.555Z,2.00
2019-03-15T02:35:19.997Z,2.20
2019-03-15T02:37:50.871Z,1.73
2019-03-15T02:40:21.521Z,1.63
2019-03-15T02:42:53.165Z,1.93
2019-03-15T02:45:24.119Z,1.57
2019-03-15T02:47:54.849Z,1.57
2019-03-15T02:50:25.547Z,1.60
2019-03-15T02:52:56.263Z,1.90
2019-03-15T02:55:27.083Z,2.10
2019-03-15T02:57:57.775Z,1.60
2019-03-15T03:00:28.410Z,1.93
2019-03-15T03:02:59.118Z,2.10
2019-03-15T03:05:34.992Z,2.00
2019-03-15T03:08:05.839Z,1.80
2019-03-15T03:10:36.550Z,1.60
2019-03-15T03:13:07.198Z,1.83
2019-03-15T03:15:37.868Z,1.97
2019-03-15T03:18:09.039Z,1.80
2019-03-15T03:20:39.707Z,1.70
2019-03-15T03:23:10.488Z,1.73
2019-03-15T03:25:42.339Z,2.87
2019-03-15T03:28:13.033Z,2.33
2019-03-15T03:30:45.843Z,2.37
2019-03-15T03:33:16.118Z,1.90
2019-03-15T03:35:46.748Z,1.80
2019-03-15T03:38:17.480Z,3.40
2019-03-15T03:40:48.597Z,2.47
2019-03-15T03:43:18.514Z,2.07
2019-03-15T03:45:49.249Z,1.83
2019-03-15T03:48:19.936Z,1.90
2019-03-15T03:50:50.644Z,2.30
2019-03-15T03:53:21.394Z,1.97
2019-03-15T03:55:52.033Z,1.73
2019-03-15T03:58:22.738Z,1.80
2019-03-15T04:00:53.539Z,2.50
2019-03-15T04:03:24.251Z,2.13
2019-03-15T04:05:54.902Z,2.10
2019-03-15T04:08:25.630Z,3.00
2019-03-15T04:10:56.335Z,2.10
2019-03-15T04:13:27.277Z,2.00
2019-03-15T04:15:57.983Z,2.10
2019-03-15T04:18:28.765Z,1.97
2019-03-15T04:20:59.481Z,1.80
2019-03-15T04:23:30.815Z,1.80
2019-03-15T04:26:02.520Z,3.20
2019-03-15T04:28:48.511Z,1.90
2019-03-15T04:31:19.757Z,2.50
2019-03-15T04:33:54.032Z,2.20
2019-03-15T04:36:24.663Z,1.70
2019-03-15T04:38:56.439Z,1.87
2019-03-15T04:41:27.054Z,2.47
2019-03-15T04:43:58.914Z,2.03
2019-03-15T04:46:29.539Z,2.40
2019-03-15T04:49:00.333Z,1.57
2019-03-15T04:51:31.028Z,2.10
2019-03-15T04:54:01.872Z,1.90
2019-03-15T04:56:32.729Z,2.20
2019-03-15T04:59:03.449Z,2.17
2019-03-15T05:01:34.119Z,2.13
2019-03-15T05:04:04.938Z,2.43
2019-03-15T05:06:35.624Z,2.10
2019-03-15T05:09:07.209Z,1.90
2019-03-15T05:11:37.860Z,2.00
2019-03-15T05:14:09.371Z,2.07
2019-03-15T05:16:40.144Z,2.70
2019-03-15T05:19:10.967Z,2.33
2019-03-15T05:21:41.644Z,2.27
2019-03-15T05:24:12.483Z,2.37
2019-03-15T05:26:43.118Z,3.77
2019-03-15T05:29:13.955Z,1.97
2019-03-15T05:31:44.621Z,2.50
2019-03-15T05:34:15.600Z,1.97
2019-03-15T05:36:46.225Z,2.47
2019-03-15T05:39:16.890Z,1.73
2019-03-15T05:41:47.517Z,1.80
2019-03-15T05:44:18.376Z,2.37
2019-03-15T05:46:49.019Z,2.50
2019-03-15T05:49:19.812Z,2.10
2019-03-15T05:51:51.562Z,1.93
2019-03-15T05:54:22.433Z,2.23
2019-03-15T05:56:53.157Z,1.93
2019-03-15T05:59:23.929Z,2.00
2019-03-15T06:01:54.595Z,2.73
2019-03-15T06:04:25.382Z,1.90
2019-03-15T06:06:56.082Z,2.10
2019-03-15T06:09:26.824Z,2.97
2019-03-15T06:11:57.590Z,3.20
2019-03-15T06:14:37.565Z,2.00
2019-03-15T06:17:08.401Z,2.40
2019-03-15T06:19:39.175Z,2.93
2019-03-15T06:22:09.785Z,1.73
2019-03-15T06:24:40.576Z,2.23
2019-03-15T06:27:11.285Z,5.80
2019-03-15T06:29:42.010Z,3.00
2019-03-15T06:32:12.692Z,3.40
2019-03-15T06:34:43.579Z,3.70
2019-03-15T06:37:14.271Z,2.70
2019-03-15T06:39:45.202Z,3.03
2019-03-15T06:42:15.862Z,3.30
2019-03-15T06:44:57.453Z,2.40
2019-03-15T06:47:19.185Z,2.93
2019-03-15T06:49:50.030Z,2.90
2019-03-15T06:52:20.714Z,3.90
2019-03-15T06:54:51.441Z,5.53
2019-03-15T06:57:22.107Z,2.37
2019-03-15T06:59:52.832Z,4.07
2019-03-15T07:02:23.461Z,4.20
2019-03-15T07:04:54.567Z,3.33
2019-03-15T07:07:25.264Z,3.53
2019-03-15T07:09:56.291Z,2.97
2019-03-15T07:12:27.121Z,3.43
2019-03-15T07:14:58.006Z,4.20
2019-03-15T07:17:34.904Z,2.90
2019-03-15T07:20:06.598Z,3.47
2019-03-15T07:22:37.519Z,3.63
2019-03-15T07:25:09.132Z,2.50
2019-03-15T07:27:42.617Z,3.30
2019-03-15T07:30:12.848Z,3.40
2019-03-15T07:32:43.627Z,3.17
2019-03-15T07:35:18.308Z,5.10
2019-03-15T07:37:49.094Z,5.17
2019-03-15T07:40:21.014Z,3.57
2019-03-15T07:42:52.151Z,2.80
2019-03-15T07:45:23.982Z,3.47
2019-03-15T07:47:54.639Z,3.30
2019-03-15T07:50:26.007Z,2.90
2019-03-15T07:52:56.720Z,3.20
2019-03-15T07:55:27.489Z,2.60
2019-03-15T07:57:58.380Z,3.67
2019-03-15T08:00:29.356Z,3.40
2019-03-15T08:03:02.526Z,3.90
2019-03-15T08:05:33.906Z,2.80
2019-03-15T08:08:04.679Z,3.13
2019-03-15T08:10:35.876Z,3.67
2019-03-15T08:13:07.122Z,3.30
2019-03-15T08:15:37.983Z,3.80
2019-03-15T08:18:08.644Z,2.57
2019-03-15T08:20:57.850Z,3.47
2019-03-15T08:23:29.294Z,3.17
2019-03-15T08:26:00.145Z,2.80
2019-03-15T08:28:30.845Z,2.93
2019-03-15T08:31:01.555Z,2.77
2019-03-15T08:33:32.185Z,4.50
2019-03-15T08:36:03.166Z,27.07
2019-03-15T08:38:42.406Z,9.60
2019-03-15T08:41:06.553Z,4.77
2019-03-15T08:43:37.209Z,3.40
2019-03-15T08:46:08.100Z,3.10
2019-03-15T08:48:38.891Z,5.70
2019-03-15T08:51:10.772Z,4.20
2019-03-15T08:53:41.882Z,2.90
2019-03-15T08:56:14.568Z,3.30
2019-03-15T08:58:45.156Z,4.80
2019-03-15T09:01:16.064Z,3.57
2019-03-15T09:03:46.865Z,3.57
2019-03-15T09:06:20.170Z,3.13
2019-03-15T09:08:51.111Z,3.00
2019-03-15T09:11:22.291Z,2.80
2019-03-15T09:13:53.091Z,3.20
2019-03-15T09:16:24.070Z,4.20
2019-03-15T09:18:55.616Z,3.30
2019-03-15T09:21:26.537Z,2.90
2019-03-15T09:23:57.187Z,3.07
2019-03-15T09:26:27.914Z,2.73
2019-03-15T09:28:58.603Z,3.90
2019-03-15T09:31:42.290Z,3.07
2019-03-15T09:34:02.318Z,4.03
2019-03-15T09:36:34.079Z,2.60
2019-03-15T09:39:06.365Z,3.37
2019-03-15T09:41:39.971Z,2.80
2019-03-15T09:44:31.344Z,2.63
2019-03-15T09:47:02.739Z,3.57
2019-03-15T09:49:33.934Z,2.60
2019-03-15T09:52:05.467Z,3.30
2019-03-15T09:54:36.342Z,2.93
2019-03-15T09:57:07.726Z,2.90
2019-03-15T09:59:38.945Z,2.47
2019-03-15T10:02:10.635Z,3.60
2019-03-15T10:04:41.585Z,2.70
2019-03-15T10:07:12.814Z,2.87
2019-03-15T10:09:46.238Z,2.00
2019-03-15T10:12:16.381Z,2.73
2019-03-15T10:14:47.160Z,2.10
2019-03-15T10:17:18.109Z,2.73
2019-03-15T10:19:48.858Z,4.10
2019-03-15T10:22:19.599Z,3.30
2019-03-15T10:24:50.290Z,3.80
2019-03-15T10:27:21.307Z,2.90
2019-03-15T10:29:52.209Z,3.03
2019-03-15T10:32:22.934Z,2.90
2019-03-15T10:34:53.893Z,2.70
2019-03-15T10:37:24.951Z,5.63
2019-03-15T10:39:55.704Z,2.80
2019-03-15T10:42:26.415Z,3.00
2019-03-15T10:44:58.502Z,2.50
2019-03-15T10:47:30.032Z,2.53
2019-03-15T10:50:03.304Z,2.50
2019-03-15T10:53:18.101Z,2.73
2019-03-15T10:55:59.416Z,2.67
2019-03-15T10:58:22.404Z,2.27
2019-03-15T11:00:53.768Z,2.20
2019-03-15T11:03:24.707Z,2.63
2019-03-15T11:05:56.567Z,2.23
2019-03-15T11:08:27.515Z,2.20
2019-03-15T11:10:58.427Z,2.63
2019-03-15T11:13:29.330Z,3.60
2019-03-15T11:16:00.199Z,2.37
2019-03-15T11:18:30.893Z,2.50
2019-03-15T11:21:01.794Z,2.87
2019-03-15T11:23:32.612Z,2.77
2019-03-15T11:26:12.961Z,4.40
2019-03-15T11:28:36.097Z,2.30
2019-03-15T11:31:07.037Z,2.80
2019-03-15T11:33:37.818Z,2.50
2019-03-15T11:36:08.680Z,2.60
2019-03-15T11:38:39.628Z,4.00
2019-03-15T11:41:10.955Z,4.43
2019-03-15T11:43:42.319Z,4.47
2019-03-15T11:46:16.355Z,5.07
2019-03-15T11:48:45.766Z,5.30
2019-03-15T11:51:16.694Z,5.60
2019-03-15T11:53:47.700Z,4.53
2019-03-15T11:56:26.890Z,5.73
2019-03-15T11:58:50.984Z,5.27
2019-03-15T12:01:21.699Z,5.67
2019-03-15T12:03:53.549Z,5.20
2019-03-15T12:06:24.344Z,5.87
2019-03-15T12:08:55.136Z,5.50
2019-03-15T12:11:37.173Z,5.47
2019-03-15T12:14:08.818Z,5.70
2019-03-15T12:16:39.756Z,6.10
2019-03-15T12:19:10.963Z,5.53
2019-03-15T12:21:41.796Z,7.73
2019-03-15T12:24:13.660Z,5.60
2019-03-15T12:26:44.486Z,5.90
2019-03-15T12:29:15.292Z,5.40
2019-03-15T12:31:46.278Z,7.00
2019-03-15T12:34:17.079Z,7.37
2019-03-15T12:36:48.001Z,5.60
2019-03-15T12:39:18.908Z,5.63
2019-03-15T12:41:49.654Z,4.47
2019-03-15T12:44:20.680Z,6.70
2019-03-15T12:46:51.406Z,4.93
2019-03-15T12:49:25.483Z,5.27
2019-03-15T12:51:54.536Z,5.40
2019-03-15T12:54:25.623Z,4.80
2019-03-15T12:56:56.296Z,4.90
2019-03-15T12:59:27.142Z,5.10
2019-03-15T13:01:58.034Z,4.40
2019-03-15T13:04:29.846Z,7.20
2019-03-15T13:07:01.624Z,4.73
2019-03-15T13:09:33.674Z,4.80
2019-03-15T13:12:04.723Z,3.77
2019-03-15T13:14:35.550Z,3.37
2019-03-15T13:17:06.399Z,5.53
2019-03-15T13:19:38.095Z,4.20
2019-03-15T13:22:10.161Z,4.00
2019-03-15T13:24:41.768Z,4.77
2019-03-15T13:27:12.657Z,4.17
2019-03-15T13:29:43.349Z,5.60
2019-03-15T13:32:14.196Z,5.27
2019-03-15T13:34:44.933Z,5.60
2019-03-15T13:37:15.868Z,5.60
2019-03-15T13:39:50.208Z,5.93
2019-03-15T13:42:20.872Z,5.40
2019-03-15T13:44:51.755Z,5.70
2019-03-15T13:47:22.451Z,5.70
2019-03-15T13:49:53.236Z,5.27
2019-03-15T13:52:24.956Z,6.70
2019-03-15T13:54:56.125Z,5.10
2019-03-15T13:57:26.923Z,5.67
2019-03-15T13:59:57.923Z,5.03
2019-03-15T14:02:28.886Z,5.40
2019-03-15T14:04:59.785Z,5.87
2019-03-15T14:07:30.852Z,5.83
2019-03-15T14:10:04.235Z,6.53
2019-03-15T14:12:34.992Z,6.47
2019-03-15T14:15:06.872Z,6.30
2019-03-15T14:17:51.157Z,3.73
2019-03-15T14:20:22.924Z,5.07
2019-03-15T14:22:53.726Z,12.17
2019-03-15T14:25:24.536Z,5.20
2019-03-15T14:27:55.231Z,5.83
2019-03-15T14:30:26.134Z,4.70
2019-03-15T14:32:57.010Z,5.43
2019-03-15T14:35:27.896Z,5.77
2019-03-15T14:37:58.726Z,6.00
2019-03-15T14:40:29.919Z,5.30
2019-03-15T14:43:00.581Z,4.93
2019-03-15T14:45:31.371Z,4.73
2019-03-15T14:48:02.350Z,5.40
2019-03-15T14:50:33.193Z,6.33
2019-03-15T14:53:04.155Z,5.57
2019-03-15T14:55:35.230Z,5.83
2019-03-15T14:58:06.505Z,9.50
2019-03-15T15:00:37.253Z,6.67
2019-03-15T15:03:07.929Z,7.23
2019-03-15T15:05:39.215Z,6.70
2019-03-15T15:08:10.176Z,6.57
2019-03-15T15:14:36.409Z,6.97
2019-03-15T15:17:07.470Z,6.60
2019-03-15T15:19:38.621Z,6.70
2019-03-15T15:22:09.387Z,6.57
2019-03-15T15:24:41.282Z,6.50
2019-03-15T15:27:12.238Z,6.37
2019-03-15T15:29:43.054Z,6.20
2019-03-15T15:32:13.852Z,6.60
2019-03-15T15:34:44.639Z,6.00
2019-03-15T15:37:15.323Z,5.87
2019-03-15T15:39:47.926Z,5.83
2019-03-15T15:42:25.739Z,5.07
2019-03-15T15:44:57.159Z,5.73
2019-03-15T15:47:28.004Z,6.70
2019-03-15T15:49:58.746Z,5.90
2019-03-15T15:52:29.515Z,6.90
2019-03-15T15:55:00.384Z,6.40
2019-03-15T15:57:31.249Z,7.27
2019-03-15T16:00:02.081Z,6.10
2019-03-15T16:02:33.849Z,6.80
2019-03-15T16:05:08.803Z,6.07
2019-03-15T16:07:39.874Z,5.43
2019-03-15T16:10:11.800Z,5.87
2019-03-15T16:12:43.083Z,4.53
2019-03-15T16:15:14.063Z,5.23
2019-03-15T16:17:45.917Z,5.20
2019-03-15T16:20:16.965Z,4.60
2019-03-15T16:22:48.151Z,5.33
2019-03-15T16:25:19.189Z,5.10
2019-03-15T16:27:50.290Z,3.70
2019-03-15T16:30:21.352Z,5.23
2019-03-15T16:32:53.077Z,5.33
2019-03-15T16:35:25.334Z,3.63
2019-03-15T16:37:56.932Z,4.73
2019-03-15T16:40:28.437Z,5.10
2019-03-15T16:43:02.768Z,4.30
2019-03-15T16:45:34.280Z,4.33
2019-03-15T16:48:06.210Z,4.13
2019-03-15T16:50:37.787Z,4.50
2019-03-15T16:53:09.823Z,4.22
2019-03-15T16:55:42.316Z,4.67
2019-03-15T16:58:13.763Z,4.50
2019-03-15T17:00:45.126Z,4.10
2019-03-15T17:03:16.566Z,4.50
2019-03-15T17:05:55.471Z,3.73
2019-03-15T17:08:27.849Z,3.63
2019-03-15T17:10:59.194Z,4.80
2019-03-15T17:13:30.235Z,5.00
2019-03-15T17:16:00.909Z,4.43
2019-03-15T17:18:31.963Z,5.07
2019-03-15T17:21:03.605Z,8.23
2019-03-15T17:23:34.506Z,5.10
2019-03-15T17:26:14.923Z,4.50
2019-03-15T17:28:58.478Z,4.90
2019-03-15T17:31:24.363Z,5.13
2019-03-15T17:33:56.410Z,4.90
2019-03-15T17:36:30.908Z,7.13
2019-03-15T17:39:02.001Z,4.57
2019-03-15T17:41:34.918Z,4.53
2019-03-15T17:44:11.011Z,4.73
2019-03-15T17:46:46.629Z,5.10
2019-03-15T17:49:23.668Z,4.50
2019-03-15T17:51:57.948Z,5.33
2019-03-15T17:54:29.513Z,6.53
2019-03-15T17:57:02.296Z,5.60
2019-03-15T17:59:34.596Z,5.83
2019-03-15T18:02:06.071Z,5.33
2019-03-15T18:04:36.913Z,5.17
2019-03-15T18:07:08.181Z,5.83
2019-03-15T18:09:38.943Z,5.70
2019-03-15T18:12:09.796Z,5.77
2019-03-15T18:14:40.907Z,5.50
2019-03-15T18:17:12.282Z,5.83
2019-03-15T18:19:43.873Z,4.63
2019-03-15T18:22:15.104Z,4.83
2019-03-15T18:24:47.535Z,5.57
2019-03-15T18:27:18.819Z,5.27
2019-03-15T18:29:50.347Z,5.10
2019-03-15T18:32:22.715Z,5.50
2019-03-15T18:34:53.960Z,4.83
2019-03-15T18:37:26.844Z,6.07
2019-03-15T18:39:58.861Z,4.63
2019-03-15T18:42:30.526Z,5.60
2019-03-15T18:45:02.179Z,4.50
2019-03-15T18:47:35.166Z,5.50
2019-03-15T18:50:06.993Z,8.87
2019-03-15T18:53:02.885Z,6.50
2019-03-15T18:55:36.305Z,4.20
2019-03-15T18:58:07.676Z,3.90
2019-03-15T19:00:38.792Z,3.87
2019-03-15T19:03:10.524Z,5.47
2019-03-15T19:05:42.004Z,4.60
2019-03-15T19:08:13.274Z,5.57
2019-03-15T19:10:45.275Z,4.50
2019-03-15T19:13:18.717Z,5.43
2019-03-15T19:15:52.664Z,5.40
2019-03-15T19:18:25.089Z,5.57
2019-03-15T19:20:58.114Z,6.30
2019-03-15T19:23:29.822Z,5.70
2019-03-15T19:26:01.354Z,6.07
2019-03-15T19:28:34.385Z,6.70
2019-03-15T19:31:05.906Z,5.50
2019-03-15T19:33:39.144Z,6.10
2019-03-15T19:36:18.375Z,7.10
2019-03-15T19:39:00.335Z,5.90
2019-03-15T19:41:37.118Z,5.73
2019-03-15T19:44:33.701Z,6.03
2019-03-15T19:47:24.086Z,5.93
2019-03-15T19:49:58.570Z,5.63
2019-03-15T19:52:29.901Z,8.20
2019-03-15T19:55:01.266Z,5.20
2019-03-15T19:57:33.088Z,7.17
2019-03-15T20:00:08.194Z,5.77
2019-03-15T20:02:39.107Z,5.60
2019-03-15T20:05:10.298Z,5.43
2019-03-15T20:07:41.476Z,6.23
2019-03-15T20:10:16.068Z,5.50
2019-03-15T20:12:46.049Z,6.70
2019-03-15T20:15:18.057Z,9.90
2019-03-15T20:18:06.754Z,5.67
2019-03-15T20:20:39.664Z,6.70
2019-03-15T20:23:11.133Z,7.50
2019-03-15T20:25:42.268Z,6.37
2019-03-15T20:28:13.668Z,6.50
2019-03-15T20:30:51.920Z,6.40
2019-03-15T20:33:17.983Z,7.10
2019-03-15T20:35:51.969Z,5.90
2019-03-15T20:38:22.389Z,6.80
2019-03-15T20:40:53.687Z,7.50
2019-03-15T20:43:25.661Z,6.20
2019-03-15T20:45:56.809Z,6.50
2019-03-15T20:48:28.467Z,7.53
2019-03-15T20:51:00.082Z,7.37
2019-03-15T20:53:33.245Z,6.33
2019-03-15T20:56:04.710Z,6.90
2019-03-15T20:58:36.090Z,9.07
2019-03-15T21:01:09.908Z,7.60
2019-03-15T21:03:55.222Z,8.53
2019-03-15T21:06:15.203Z,9.60
2019-03-15T21:08:46.568Z,7.20
2019-03-15T21:11:17.632Z,7.80
2019-03-15T21:13:49.496Z,7.40
2019-03-15T21:16:21.619Z,8.10
2019-03-15T21:19:11.955Z,7.50
2019-03-15T21:21:50.300Z,8.60
2019-03-15T21:24:21.722Z,9.90
2019-03-15T21:26:53.171Z,7.90
2019-03-15T21:29:24.211Z,11.03
2019-03-15T21:31:55.888Z,8.70
2019-03-15T21:34:27.720Z,8.00
2019-03-15T21:36:58.881Z,8.07
2019-03-15T21:39:31.429Z,7.87
2019-03-15T21:42:04.388Z,8.47
2019-03-15T21:44:38.444Z,10.53
2019-03-15T21:47:09.677Z,8.83
2019-03-15T21:49:41.138Z,8.47
2019-03-15T21:52:14.595Z,8.60
2019-03-15T21:54:46.515Z,8.50
2019-03-15T21:57:17.461Z,7.67
2019-03-15T21:59:49.522Z,7.80
2019-03-15T22:02:20.955Z,9.50
2019-03-15T22:04:51.940Z,8.20
2019-03-15T22:07:23.521Z,6.83
2019-03-15T22:09:56.397Z,7.43
2019-03-15T22:12:27.988Z,6.60
2019-03-15T22:14:59.385Z,9.53
2019-03-15T22:17:30.700Z,7.50
2019-03-15T22:20:02.236Z,6.73
2019-03-15T22:22:42.415Z,6.60
2019-03-15T22:25:36.291Z,5.80
2019-03-15T22:28:09.913Z,6.30
2019-03-15T22:30:41.607Z,7.23
2019-03-15T22:33:13.072Z,7.17
2019-03-15T22:35:44.471Z,7.70
2019-03-15T22:38:25.698Z,8.17
2019-03-15T22:40:48.687Z,8.00
2019-03-15T22:43:19.881Z,7.40
2019-03-15T22:45:50.963Z,8.70
2019-03-15T22:48:21.908Z,8.43
2019-03-15T22:50:57.638Z,9.73
2019-03-15T22:53:28.545Z,7.00
2019-03-15T22:55:59.992Z,7.83
2019-03-15T22:58:31.567Z,10.27
2019-03-15T23:01:03.536Z,10.23
2019-03-15T23:03:36.983Z,11.27
2019-03-15T23:06:08.884Z,14.20
2019-03-15T23:08:40.540Z,10.10
2019-03-15T23:11:11.949Z,9.53
2019-03-15T23:13:43.323Z,10.03
2019-03-15T23:16:15.180Z,9.30
2019-03-15T23:18:46.730Z,8.80
2019-03-15T23:21:19.897Z,9.30
2019-03-15T23:23:51.512Z,9.43
2019-03-15T23:26:23.871Z,9.87
2019-03-15T23:28:56.469Z,7.63
2019-03-15T23:31:29.010Z,9.97
2019-03-15T23:34:01.557Z,10.20
2019-03-15T23:36:34.387Z,8.80
2019-03-15T23:39:07.145Z,9.43
2019-03-15T23:41:39.460Z,9.30
2019-03-15T23:44:11.369Z,10.20
2019-03-15T23:46:43.002Z,8.73
2019-03-15T23:49:21.077Z,13.10
2019-03-15T23:51:53.026Z,11.27
2019-03-15T23:54:24.792Z,9.50
2019-03-15T23:56:55.541Z,9.90
2019-03-15T23:59:27.402Z,10.50
